Time;durP1;ratioP1;P1;durP2;ratioP2;P2;SDS_P1;SDS_P2;PMS_P1;PMS_P2;Temp;Humidity;BMP_temperature;BMP_pressure;BME280_temperature;BME280_humidity;BME280_pressure;Samples;Min_cycle;Max_cycle;Signal;HPM_P1;HPM_P2
2024/01/27 00:02:11;;;;;;;4.63;2.63;;;;;;;5.64;62.22;100043.78;5117184;28;20573;-65
2024/01/27 00:04:37;;;;;;;3.47;2.80;;;;;;;5.71;62.06;100045.66;5114973;28;20211;-65
2024/01/27 00:07:05;;;;;;;2.77;2.50;;;;;;;5.76;61.72;100042.56;5114516;28;20244;-64
2024/01/27 00:09:32;;;;;;;3.23;2.87;;;;;;;5.85;61.47;100048.75;5114989;28;20196;-64
2024/01/27 00:11:59;;;;;;;4.67;2.90;;;;;;;5.92;60.72;100063.00;5113959;28;20210;-65
2024/01/27 00:14:26;;;;;;;3.00;2.70;;;;;;;5.94;60.57;100061.00;5114526;28;20678;-65
2024/01/27 00:16:52;;;;;;;5.60;3.20;;;;;;;5.93;59.82;100075.19;5114464;28;20239;-65
2024/01/27 00:19:19;;;;;;;3.53;2.23;;;;;;;5.96;59.75;100078.34;5114478;28;20285;-65
2024/01/27 00:21:46;;;;;;;5.27;2.47;;;;;;;6.01;60.01;100089.28;5114185;28;20190;-66
2024/01/27 00:24:15;;;;;;;4.70;4.07;;;;;;;6.09;59.67;100088.50;5114026;28;20228;-66
2024/01/27 00:26:43;;;;;;;5.87;3.40;;;;;;;6.04;59.01;100088.13;5114203;28;20194;-65
2024/01/27 00:29:09;;;;;;;3.43;3.13;;;;;;;5.99;59.00;100085.09;5114228;28;20688;-65
2024/01/27 00:31:36;;;;;;;4.60;3.60;;;;;;;6.14;58.58;100086.22;5114400;28;20202;-65
2024/01/27 00:34:03;;;;;;;4.47;3.87;;;;;;;6.21;58.53;100079.38;5114413;28;20201;-66
2024/01/27 00:36:30;;;;;;;3.70;3.40;;;;;;;6.14;58.26;100073.03;5114199;28;20194;-65
2024/01/27 00:38:56;;;;;;;2.90;2.67;;;;;;;6.00;57.67;100060.41;5113922;28;20557;-66
2024/01/27 00:41:24;;;;;;;4.70;3.00;;;;;;;6.12;57.89;100061.84;5113656;28;20230;-66
2024/01/27 00:43:51;;;;;;;4.13;2.90;;;;;;;6.06;57.63;100060.63;5113480;28;20648;-65
2024/01/27 00:46:18;;;;;;;2.80;2.60;;;;;;;6.07;57.40;100057.00;5114096;28;20258;-66
2024/01/27 00:48:44;;;;;;;3.17;2.97;;;;;;;6.16;58.36;100056.06;5113818;28;20647;-65
2024/01/27 00:51:11;;;;;;;5.00;2.80;;;;;;;6.16;57.47;100057.91;5113718;28;20246;-65
2024/01/27 00:53:38;;;;;;;2.50;2.30;;;;;;;5.98;58.24;100051.81;5113650;28;20259;-65
2024/01/27 00:56:06;;;;;;;4.73;2.63;;;;;;;5.76;58.28;100056.56;5113685;28;20227;-65
2024/01/27 00:58:34;;;;;;;3.13;2.93;;;;;;;5.70;58.80;100051.91;5113965;28;20186;-65
2024/01/27 01:01:01;;;;;;;3.17;2.60;;;;;;;5.54;59.18;100046.50;5113996;28;20198;-66
2024/01/27 01:03:27;;;;;;;4.60;2.93;;;;;;;5.43;59.73;100038.81;5113239;28;20225;-65
2024/01/27 01:05:54;;;;;;;3.20;2.90;;;;;;;5.41;59.85;100024.13;5113677;28;20192;-66
2024/01/27 01:08:21;;;;;;;3.43;2.97;;;;;;;5.31;60.00;100020.75;5113257;28;20220;-66
2024/01/27 01:10:48;;;;;;;2.60;2.40;;;;;;;5.29;59.99;100012.16;5113626;28;20446;-66
2024/01/27 01:13:14;;;;;;;4.17;3.13;;;;;;;5.18;60.26;100018.47;5112820;28;20206;-66
2024/01/27 01:15:42;;;;;;;3.13;2.83;;;;;;;5.25;60.06;100006.38;5112891;28;20653;-65
2024/01/27 01:18:09;;;;;;;4.03;2.50;;;;;;;5.30;59.67;100004.09;5113247;28;20195;-66
2024/01/27 01:20:36;;;;;;;3.10;2.80;;;;;;;5.33;59.96;99995.91;5113377;28;20198;-65
2024/01/27 01:23:03;;;;;;;3.03;2.83;;;;;;;5.31;59.71;100000.50;5113003;28;20223;-65
2024/01/27 01:25:30;;;;;;;2.93;2.73;;;;;;;5.38;59.54;99993.66;5113484;28;20194;-66
2024/01/27 01:27:57;;;;;;;2.83;2.67;;;;;;;5.37;59.25;99988.53;5113257;28;20191;-66
2024/01/27 01:30:24;;;;;;;2.67;2.57;;;;;;;5.38;58.97;99993.66;5113271;28;20241;-66
2024/01/27 01:32:52;;;;;;;3.13;2.77;;;;;;;5.41;58.93;99982.81;5113454;28;20248;-66
2024/01/27 01:35:19;;;;;;;3.97;3.67;;;;;;;5.42;58.93;99991.53;5113179;28;20601;-66
2024/01/27 01:37:47;;;;;;;4.60;4.20;;;;;;;5.39;59.09;99991.81;5112763;28;20620;-66
2024/01/27 01:40:15;;;;;;;5.00;4.50;;;;;;;5.33;59.27;99987.19;5112213;28;20219;-66
2024/01/27 01:42:42;;;;;;;5.17;4.70;;;;;;;5.39;59.44;99995.31;5112528;28;20202;-67
2024/01/27 01:45:12;;;;;;;4.97;4.67;;;;;;;5.42;59.36;99981.84;5112239;28;20294;-66
2024/01/27 01:47:39;;;;;;;4.97;4.57;;;;;;;5.28;59.46;99982.34;5112207;28;20195;-65
2024/01/27 01:50:09;;;;;;;4.67;4.20;;;;;;;5.26;59.45;99979.06;5112913;28;20191;-65
2024/01/27 01:52:37;;;;;;;3.67;3.30;;;;;;;5.25;59.33;99985.31;5113123;28;20223;-64
2024/01/27 01:55:04;;;;;;;3.87;3.57;;;;;;;5.22;59.29;99985.59;5112297;28;20191;-65
2024/01/27 01:57:30;;;;;;;2.77;2.57;;;;;;;5.19;59.57;99985.88;5112353;28;20242;-64
2024/01/27 01:59:57;;;;;;;4.53;3.87;;;;;;;5.24;59.30;99973.09;5112544;28;20198;-65
2024/01/27 02:02:24;;;;;;;3.60;3.40;;;;;;;5.26;58.90;99968.53;5112415;28;20195;-65
2024/01/27 02:04:50;;;;;;;4.00;2.97;;;;;;;5.30;58.97;99964.59;5112623;28;20291;-65
2024/01/27 02:07:18;;;;;;;4.20;3.20;;;;;;;5.26;59.12;99947.44;5112692;28;20194;-65
2024/01/27 02:09:45;;;;;;;3.70;2.97;;;;;;;5.26;58.67;99957.16;5112593;28;20259;-65
2024/01/27 02:12:12;;;;;;;3.20;2.67;;;;;;;5.22;59.13;99963.69;5112507;28;20191;-65
2024/01/27 02:14:39;;;;;;;3.73;2.90;;;;;;;5.22;59.16;99977.69;5112118;28;20195;-64
2024/01/27 02:17:05;;;;;;;3.67;3.37;;;;;;;5.29;59.03;99981.41;5112027;28;20192;-66
2024/01/27 02:19:32;;;;;;;4.00;2.90;;;;;;;5.22;59.20;99985.59;5112283;28;20282;-66
2024/01/27 02:21:59;;;;;;;3.10;2.83;;;;;;;5.19;59.19;99985.09;5112406;28;20663;-66
2024/01/27 02:24:28;;;;;;;4.60;3.87;;;;;;;5.10;59.85;99980.69;5112116;28;20216;-66
2024/01/27 02:26:55;;;;;;;3.60;3.40;;;;;;;5.10;60.12;99976.25;5111840;28;20664;-66
2024/01/27 02:29:22;;;;;;;3.97;3.57;;;;;;;5.10;60.05;99981.53;5111609;28;20191;-66
2024/01/27 02:31:49;;;;;;;3.23;3.03;;;;;;;5.14;59.99;99977.63;5112349;28;20258;-65
2024/01/27 02:34:15;;;;;;;3.73;3.20;;;;;;;5.27;59.21;99982.53;5111848;28;20191;-66
2024/01/27 02:36:43;;;;;;;3.03;2.83;;;;;;;5.27;59.23;99983.34;5112019;28;20187;-65
2024/01/27 02:39:10;;;;;;;3.20;2.90;;;;;;;5.31;59.21;99984.69;5111695;28;20683;-65
2024/01/27 02:41:39;;;;;;;3.10;2.90;;;;;;;5.20;58.67;99982.28;5112334;28;20230;-65
2024/01/27 02:44:05;;;;;;;4.20;3.90;;;;;;;5.35;58.65;99980.78;5111859;28;20223;-65
2024/01/27 02:46:32;;;;;;;3.67;3.37;;;;;;;5.48;58.66;99980.41;5111897;28;20191;-65
2024/01/27 02:48:59;;;;;;;3.37;3.10;;;;;;;5.48;58.38;99981.22;5111874;28;20258;-65
2024/01/27 02:51:26;;;;;;;3.60;3.30;;;;;;;5.45;58.37;99967.53;5112147;28;20195;-66
2024/01/27 02:53:52;;;;;;;3.30;3.10;;;;;;;5.52;57.40;99971.22;5111734;28;20196;-65
2024/01/27 02:56:19;;;;;;;3.20;3.00;;;;;;;5.50;58.22;99966.09;5112077;28;20198;-66
2024/01/27 02:58:47;;;;;;;4.10;2.70;;;;;;;5.47;58.42;99963.75;5111737;28;20188;-66
2024/01/27 03:01:14;;;;;;;3.17;2.67;;;;;;;5.50;58.39;99966.09;5111583;28;20568;-65
2024/01/27 03:03:41;;;;;;;3.30;3.00;;;;;;;5.57;57.94;99969.75;5111910;28;20267;-65
2024/01/27 03:06:07;;;;;;;3.00;2.80;;;;;;;5.62;57.92;99967.50;5111829;28;20252;-66
2024/01/27 03:08:34;;;;;;;2.50;2.30;;;;;;;5.63;58.43;99966.53;5111587;28;20187;-66
2024/01/27 03:11:01;;;;;;;3.23;3.00;;;;;;;5.66;58.39;99958.31;5111706;28;20275;-66
2024/01/27 03:13:27;;;;;;;2.60;2.40;;;;;;;5.64;58.34;99948.91;5111388;28;20750;-66
2024/01/27 03:15:56;;;;;;;3.40;3.20;;;;;;;5.61;58.49;99943.94;5111525;28;20234;-65
2024/01/27 03:18:24;;;;;;;3.30;2.50;;;;;;;5.39;57.94;99942.63;5111731;28;20203;-66
2024/01/27 03:20:51;;;;;;;3.13;2.80;;;;;;;5.33;58.48;99945.88;5111683;28;20196;-66
2024/01/27 03:23:18;;;;;;;2.90;2.80;;;;;;;5.37;58.25;99947.22;5112038;28;20292;-66
2024/01/27 03:25:44;;;;;;;3.27;3.03;;;;;;;5.32;57.52;99949.47;5111182;28;20690;-67
2024/01/27 03:28:11;;;;;;;4.03;3.30;;;;;;;5.38;57.75;99954.16;5111812;28;20204;-66
2024/01/27 03:30:38;;;;;;;3.60;3.30;;;;;;;5.22;57.56;99950.53;5111176;28;20259;-66
2024/01/27 03:33:10;;;;;;;3.10;3.00;;;;;;;5.09;57.70;99945.66;5111155;28;20196;-65
2024/01/27 03:35:37;;;;;;;2.80;2.60;;;;;;;5.06;58.07;99945.94;5111822;28;20185;-66
2024/01/27 03:38:04;;;;;;;4.63;3.90;;;;;;;5.16;57.80;99944.06;5111241;28;20574;-65
2024/01/27 03:40:31;;;;;;;5.90;4.57;;;;;;;5.05;57.66;99936.41;5113708;28;20223;-65
2024/01/27 03:42:57;;;;;;;4.33;3.50;;;;;;;5.03;56.79;99927.00;5114918;28;20615;-66
2024/01/27 03:45:24;;;;;;;4.50;3.67;;;;;;;5.00;57.16;99917.59;5114973;28;20291;-66
2024/01/27 03:47:51;;;;;;;4.70;3.80;;;;;;;4.97;57.34;99917.06;5115020;28;20252;-66
2024/01/27 03:50:19;;;;;;;4.07;3.50;;;;;;;5.06;57.23;99927.50;5114973;28;20681;-66
2024/01/27 03:52:45;;;;;;;6.83;4.37;;;;;;;5.06;56.66;99921.41;5115034;28;20191;-66
2024/01/27 03:55:12;;;;;;;4.33;3.90;;;;;;;5.14;56.51;99911.78;5114527;28;20187;-66
2024/01/27 03:57:39;;;;;;;5.33;3.93;;;;;;;5.17;55.83;99914.13;5114331;28;20273;-66
2024/01/27 04:00:07;;;;;;;5.40;3.30;;;;;;;5.17;55.83;99911.50;5114291;28;20733;-64
2024/01/27 04:02:34;;;;;;;2.70;2.50;;;;;;;5.41;55.67;99906.44;5111675;28;20727;-65
2024/01/27 04:05:00;;;;;;;3.23;2.97;;;;;;;5.52;54.61;99913.25;5114228;28;20215;-65
2024/01/27 04:07:28;;;;;;;6.80;4.63;;;;;;;5.61;54.00;99899.97;5114572;28;20255;-66
2024/01/27 04:09:55;;;;;;;2.50;2.40;;;;;;;5.62;53.21;99899.00;5114220;28;20187;-66
2024/01/27 04:12:22;;;;;;;3.73;3.27;;;;;;;5.71;52.88;99897.22;5114544;28;20187;-65
2024/01/27 04:14:49;;;;;;;3.67;3.07;;;;;;;5.81;52.58;99902.44;5114124;28;20198;-67
2024/01/27 04:17:15;;;;;;;2.90;2.80;;;;;;;5.93;52.59;99885.38;5114040;28;20191;-65
2024/01/27 04:19:42;;;;;;;8.03;6.93;;;;;;;6.06;51.32;99891.03;5114121;28;20186;-65
2024/01/27 04:22:09;;;;;;;7.87;5.43;;;;;;;6.14;50.28;99894.56;5114118;28;20182;-67
2024/01/27 04:24:37;;;;;;;2.77;2.57;;;;;;;6.17;49.86;99894.25;5113759;28;20697;-65
2024/01/27 04:27:04;;;;;;;2.50;2.30;;;;;;;6.27;50.18;99894.09;5114052;28;20244;-66
2024/01/27 04:29:31;;;;;;;2.23;2.13;;;;;;;6.28;49.50;99882.56;5113510;28;20660;-65
2024/01/27 04:31:57;;;;;;;2.20;2.10;;;;;;;6.30;48.91;99899.91;5113349;28;20253;-66
2024/01/27 04:34:24;;;;;;;2.80;2.60;;;;;;;6.27;48.82;99902.00;5113631;28;20327;-66
2024/01/27 04:36:52;;;;;;;3.90;3.57;;;;;;;6.44;48.77;99895.78;5113720;28;20191;-66
2024/01/27 04:39:19;;;;;;;3.47;2.30;;;;;;;6.45;48.13;99898.28;5113890;28;20270;-66
2024/01/27 04:41:47;;;;;;;2.37;2.00;;;;;;;6.63;48.10;99895.53;5113898;28;20231;-66
2024/01/27 04:44:13;;;;;;;2.27;1.77;;;;;;;6.61;47.93;99897.53;5110624;28;20754;-66
2024/01/27 04:46:40;;;;;;;1.93;1.83;;;;;;;6.61;47.32;99892.25;5113460;28;20195;-66
2024/01/27 04:49:07;;;;;;;2.37;2.27;;;;;;;6.73;47.08;99890.97;5113641;28;21781;-65
2024/01/27 04:51:34;;;;;;;2.77;1.90;;;;;;;6.81;47.81;99883.06;5110037;28;20198;-65
2024/01/27 04:54:00;;;;;;;2.07;1.90;;;;;;;6.81;47.12;99888.34;5113195;28;20553;-65
2024/01/27 04:56:27;;;;;;;3.53;2.40;;;;;;;6.81;46.70;99888.34;5113214;28;20247;-65
2024/01/27 04:58:55;;;;;;;2.33;2.10;;;;;;;6.78;45.51;99880.72;5110822;28;20239;-66
2024/01/27 05:01:22;;;;;;;2.10;2.00;;;;;;;6.91;46.39;99883.72;5112908;28;20208;-65
2024/01/27 05:03:49;;;;;;;3.77;1.87;;;;;;;6.98;46.00;99879.44;5113356;28;20282;-66
2024/01/27 05:06:16;;;;;;;2.30;1.90;;;;;;;6.99;45.30;99886.38;5113225;28;20568;-66
2024/01/27 05:08:42;;;;;;;2.40;2.20;;;;;;;7.05;44.89;99886.53;5113441;28;20191;-65
2024/01/27 05:11:10;;;;;;;2.20;2.10;;;;;;;7.07;44.37;99878.47;5113401;28;20252;-65
2024/01/27 05:13:37;;;;;;;2.67;2.50;;;;;;;7.01;44.82;99873.81;5113522;28;20194;-65
2024/01/27 05:16:06;;;;;;;2.40;2.20;;;;;;;6.97;44.69;99893.63;5113326;28;20189;-65
2024/01/27 05:18:33;;;;;;;2.90;2.70;;;;;;;6.96;45.01;99887.53;5113238;28;20193;-65
2024/01/27 05:20:59;;;;;;;4.53;3.37;;;;;;;6.98;44.56;99890.81;5113321;28;20201;-66
2024/01/27 05:23:26;;;;;;;2.30;2.10;;;;;;;6.87;45.19;99887.66;5113071;28;20266;-66
2024/01/27 05:25:54;;;;;;;3.00;2.80;;;;;;;6.94;45.05;99888.69;5113093;28;20275;-66
2024/01/27 05:28:21;;;;;;;2.17;2.07;;;;;;;7.02;46.40;99886.06;5112929;28;20734;-66
2024/01/27 05:30:47;;;;;;;2.40;2.20;;;;;;;6.94;46.33;99891.31;5112898;28;20195;-67
2024/01/27 05:33:16;;;;;;;3.67;2.37;;;;;;;6.82;46.40;99905.81;5113151;28;20190;-66
2024/01/27 05:35:43;;;;;;;2.13;2.03;;;;;;;6.75;46.66;99894.25;5112796;27;20204;-71
2024/01/27 05:38:10;;;;;;;2.30;2.10;;;;;;;6.48;47.01;99887.41;5113108;28;20247;-72
2024/01/27 05:40:36;;;;;;;3.40;2.30;;;;;;;6.63;46.84;99903.47;5113113;28;20230;-72
2024/01/27 05:43:03;;;;;;;3.83;2.40;;;;;;;6.59;47.48;99899.47;5110921;28;20782;-71
2024/01/27 05:45:31;;;;;;;3.47;1.87;;;;;;;6.67;47.06;99905.63;5111801;28;20692;-70
2024/01/27 05:47:58;;;;;;;3.67;1.97;;;;;;;6.69;46.75;99910.75;5112881;28;20200;-71
2024/01/27 05:50:26;;;;;;;3.00;2.20;;;;;;;6.52;46.78;99890.53;5112613;28;20560;-70
2024/01/27 05:52:53;;;;;;;6.67;3.37;;;;;;;6.71;46.55;99908.75;5111750;28;20190;-71
2024/01/27 05:55:20;;;;;;;3.10;2.90;;;;;;;6.65;46.53;99899.66;5112380;28;20290;-71
2024/01/27 05:57:47;;;;;;;3.50;3.13;;;;;;;6.75;46.89;99915.38;5111908;28;20195;-72
2024/01/27 06:00:14;;;;;;;2.90;2.70;;;;;;;6.79;46.25;99906.97;5112330;28;20195;-73
2024/01/27 06:02:41;;;;;;;3.50;3.30;;;;;;;6.79;46.13;99912.25;5111277;28;20200;-70
2024/01/27 06:05:09;;;;;;;7.13;3.87;;;;;;;6.91;46.04;99916.25;5110575;28;20602;-71
2024/01/27 06:07:38;;;;;;;3.87;3.37;;;;;;;6.91;45.64;99915.41;5109900;28;20281;-71
2024/01/27 06:10:07;;;;;;;3.47;3.23;;;;;;;6.87;46.02;99909.63;5111740;28;20196;-72
2024/01/27 06:12:34;;;;;;;3.10;2.80;;;;;;;6.92;46.37;99909.13;5111853;28;20246;-72
2024/01/27 06:15:01;;;;;;;3.43;3.23;;;;;;;6.87;45.99;99911.44;5111933;28;20203;-72
2024/01/27 06:17:27;;;;;;;3.83;3.10;;;;;;;6.96;46.08;99916.56;5111175;28;20550;-71
2024/01/27 06:19:55;;;;;;;3.73;2.73;;;;;;;6.95;45.21;99914.94;5111762;28;20230;-71
2024/01/27 06:22:22;;;;;;;6.20;3.23;;;;;;;6.88;46.49;99915.72;5112318;28;20205;-72
2024/01/27 06:24:50;;;;;;;3.07;2.87;;;;;;;6.87;46.18;99914.91;5112007;28;20224;-72
2024/01/27 06:27:16;;;;;;;3.60;3.30;;;;;;;6.94;46.64;99926.47;5111761;28;20194;-72
2024/01/27 06:29:43;;;;;;;5.87;4.00;;;;;;;6.86;47.80;99918.53;5112630;28;20190;-68
2024/01/27 06:32:10;;;;;;;8.37;5.90;;;;;;;6.86;49.24;99913.25;5111485;28;20291;-69
2024/01/27 06:34:37;;;;;;;7.03;4.03;;;;;;;6.82;49.90;99921.66;5111518;28;20201;-70
2024/01/27 06:37:04;;;;;;;3.77;3.40;;;;;;;6.75;52.16;99907.44;5111627;28;20553;-69
2024/01/27 06:39:31;;;;;;;4.83;4.47;;;;;;;6.76;54.71;99906.44;5110902;28;20193;-69
2024/01/27 06:41:59;;;;;;;22.07;8.30;;;;;;;6.78;56.14;99907.94;5111244;28;20218;-68
2024/01/27 06:44:26;;;;;;;15.23;8.27;;;;;;;6.90;57.24;99903.19;5111417;28;20226;-68
2024/01/27 06:46:53;;;;;;;6.53;5.80;;;;;;;6.97;58.44;99910.28;5111692;28;20240;-69
2024/01/27 06:49:19;;;;;;;7.63;5.03;;;;;;;7.00;57.92;99911.78;5110983;28;20614;-68
2024/01/27 06:51:46;;;;;;;3.77;3.47;;;;;;;7.05;58.18;99912.13;5111449;28;20201;-69
2024/01/27 06:54:13;;;;;;;3.87;3.57;;;;;;;7.13;58.50;99904.19;5111511;28;20645;-69
2024/01/27 06:56:40;;;;;;;5.00;4.07;;;;;;;6.99;58.46;99899.56;5111414;28;20244;-69
2024/01/27 06:59:08;;;;;;;4.13;3.80;;;;;;;7.00;59.03;99902.06;5111375;28;20198;-69
2024/01/27 07:01:34;;;;;;;6.30;4.57;;;;;;;7.04;58.98;99889.34;5111655;28;20191;-68
2024/01/27 07:04:01;;;;;;;3.90;3.60;;;;;;;6.99;58.63;99896.94;5110796;28;20243;-68
2024/01/27 07:06:28;;;;;;;3.77;3.47;;;;;;;6.84;59.76;99891.47;5111187;28;20307;-68
2024/01/27 07:08:54;;;;;;;5.53;4.10;;;;;;;6.86;60.08;99891.31;5111254;28;20193;-68
2024/01/27 07:11:21;;;;;;;7.10;4.73;;;;;;;6.77;60.50;99873.81;5110591;28;20186;-68
2024/01/27 07:13:48;;;;;;;6.80;4.80;;;;;;;6.97;58.61;99893.63;5111568;28;20193;-68
2024/01/27 07:16:16;;;;;;;6.37;4.50;;;;;;;7.04;58.23;99894.63;5115259;28;20255;-67
2024/01/27 07:18:43;;;;;;;6.27;3.27;;;;;;;7.08;58.41;99896.78;5114588;28;20198;-66
2024/01/27 07:21:09;;;;;;;3.90;3.63;;;;;;;7.12;58.07;99898.09;5114761;28;20658;-69
2024/01/27 07:23:36;;;;;;;4.70;4.20;;;;;;;7.13;58.41;99885.72;5115167;28;20190;-69
2024/01/27 07:26:03;;;;;;;4.70;4.07;;;;;;;7.16;58.69;99893.31;5114337;28;20286;-69
2024/01/27 07:28:30;;;;;;;5.53;5.03;;;;;;;7.25;57.91;99874.66;5115243;28;20194;-68
2024/01/27 07:30:56;;;;;;;3.73;3.43;;;;;;;7.26;57.13;99878.94;5110466;28;20231;-69
2024/01/27 07:33:25;;;;;;;4.67;3.23;;;;;;;7.40;57.82;99896.78;5113400;28;20198;-69
2024/01/27 07:35:51;;;;;;;2.93;2.80;;;;;;;7.36;56.63;99905.22;5114175;28;20198;-68
2024/01/27 07:38:18;;;;;;;3.63;3.40;;;;;;;7.36;56.41;99910.50;5114840;28;20190;-67
2024/01/27 07:40:45;;;;;;;3.70;3.50;;;;;;;7.34;56.49;99904.53;5114536;28;20218;-68
2024/01/27 07:43:12;;;;;;;5.90;3.80;;;;;;;7.46;55.90;99905.84;5114968;28;20702;-69
2024/01/27 07:45:38;;;;;;;2.97;2.80;;;;;;;7.48;57.12;99914.44;5114606;28;20362;-68
2024/01/27 07:48:07;;;;;;;8.70;5.93;;;;;;;7.44;56.72;99913.13;5113299;28;20543;-69
2024/01/27 07:50:35;;;;;;;3.57;3.37;;;;;;;7.45;56.99;99899.75;5114733;28;20230;-68
2024/01/27 07:53:02;;;;;;;8.50;5.23;;;;;;;7.34;58.25;99902.72;5114865;28;20274;-67
2024/01/27 07:55:28;;;;;;;6.53;4.20;;;;;;;7.37;58.30;99875.16;5115197;28;20255;-68
2024/01/27 07:57:55;;;;;;;4.73;4.23;;;;;;;7.43;59.05;99895.63;5114489;28;20194;-69
2024/01/27 08:00:22;;;;;;;6.43;4.00;;;;;;;7.35;60.39;99882.44;5114713;28;20198;-67
2024/01/27 08:02:48;;;;;;;4.63;3.97;;;;;;;7.35;61.09;99864.72;5114167;28;20235;-67
2024/01/27 08:05:16;;;;;;;4.83;4.27;;;;;;;7.23;61.42;99854.69;5114702;28;20314;-68
2024/01/27 08:07:44;;;;;;;7.97;4.30;;;;;;;7.25;60.63;99860.63;5113920;28;20706;-68
2024/01/27 08:10:11;;;;;;;4.03;3.63;;;;;;;7.28;60.38;99849.72;5113585;28;20674;-68
2024/01/27 08:12:38;;;;;;;8.83;4.37;;;;;;;7.27;60.00;99838.31;5113623;28;20194;-68
2024/01/27 08:15:06;;;;;;;5.00;4.50;;;;;;;7.24;60.50;99827.28;5114515;28;20194;-68
2024/01/27 08:17:32;;;;;;;3.97;3.43;;;;;;;7.35;60.86;99819.00;5113423;28;20227;-68
2024/01/27 08:20:00;;;;;;;4.67;3.90;;;;;;;7.46;60.03;99800.13;5114249;28;20286;-68
2024/01/27 08:22:26;;;;;;;5.67;4.83;;;;;;;7.47;60.57;99799.16;5114124;28;20271;-69
2024/01/27 08:24:54;;;;;;;4.10;3.70;;;;;;;7.55;58.91;99788.56;5113148;28;20268;-69
2024/01/27 08:27:21;;;;;;;7.80;4.37;;;;;;;7.58;59.17;99793.50;5113009;28;20200;-69
2024/01/27 08:29:48;;;;;;;10.03;4.40;;;;;;;7.67;59.17;99792.50;5110882;28;20186;-68
2024/01/27 08:32:15;;;;;;;5.07;4.17;;;;;;;7.76;57.82;99791.47;5113774;28;20191;-68
2024/01/27 08:34:41;;;;;;;4.50;3.80;;;;;;;7.73;56.07;99802.38;5113633;28;20571;-68
2024/01/27 08:37:16;;;;;;;7.13;4.77;;;;;;;7.89;57.61;99812.91;5112678;28;20247;-70
2024/01/27 08:39:43;;;;;;;9.97;4.80;;;;;;;8.02;58.09;99815.84;5113040;28;20217;-68
2024/01/27 08:42:11;;;;;;;5.80;3.20;;;;;;;8.08;58.86;99825.75;5112853;28;20654;-67
2024/01/27 08:44:37;;;;;;;3.20;2.90;;;;;;;8.29;61.25;99832.09;5113212;28;20183;-67
2024/01/27 08:47:04;;;;;;;4.00;2.80;;;;;;;8.25;61.07;99830.00;5113457;28;20190;-68
2024/01/27 08:49:30;;;;;;;5.83;3.30;;;;;;;8.51;61.94;99836.63;5112912;28;20194;-67
2024/01/27 08:51:57;;;;;;;3.23;2.93;;;;;;;8.64;62.92;99836.03;5112795;28;20499;-67
2024/01/27 08:54:24;;;;;;;2.33;2.13;;;;;;;8.71;62.97;99834.34;5113495;28;20190;-68
2024/01/27 08:56:50;;;;;;;2.83;2.63;;;;;;;8.79;64.39;99835.09;5113682;28;20776;-67
2024/01/27 08:59:19;;;;;;;3.83;3.07;;;;;;;8.83;65.13;99848.84;5113223;28;20199;-70
2024/01/27 09:01:45;;;;;;;6.13;3.93;;;;;;;8.76;66.49;99843.41;5113422;28;20205;-69
2024/01/27 09:04:12;;;;;;;3.00;2.80;;;;;;;8.72;67.59;99859.81;5113226;28;20623;-69
2024/01/27 09:06:39;;;;;;;4.77;3.63;;;;;;;8.89;67.26;99850.75;5112739;28;20268;-69
2024/01/27 09:09:06;;;;;;;5.13;3.80;;;;;;;9.10;66.12;99865.00;5113014;28;20660;-70
2024/01/27 09:11:34;;;;;;;5.03;3.20;;;;;;;9.60;65.24;99870.53;5113667;28;20255;-69
2024/01/27 09:14:00;;;;;;;5.10;3.40;;;;;;;10.01;63.55;99881.56;5112741;28;20252;-69
2024/01/27 09:16:28;;;;;;;3.90;3.10;;;;;;;10.21;62.88;99882.69;5113430;28;20194;-68
2024/01/27 09:18:55;;;;;;;6.00;3.37;;;;;;;10.43;61.80;99887.06;5113319;28;20186;-70
2024/01/27 09:21:27;;;;;;;4.60;2.97;;;;;;;10.72;60.31;99874.53;5113201;28;20187;-69
2024/01/27 09:23:54;;;;;;;3.75;3.08;;;;;;;10.87;60.15;99880.63;5112468;28;20431;-70
2024/01/27 09:26:22;;;;;;;4.97;4.10;;;;;;;11.26;59.02;99880.19;5112531;28;20779;-69
2024/01/27 09:28:54;;;;;;;13.20;3.20;;;;;;;11.33;56.96;99838.53;5112742;28;20219;-72
2024/01/27 09:31:22;;;;;;;6.53;2.80;;;;;;;11.32;57.29;99878.59;5111859;28;20438;-67
2024/01/27 09:33:52;;;;;;;7.23;2.97;;;;;;;11.66;56.88;99850.28;5112460;28;20189;-70
2024/01/27 09:36:18;;;;;;;5.83;2.73;;;;;;;12.07;53.40;99879.59;5112547;28;20219;-70
2024/01/27 09:38:45;;;;;;;4.07;2.50;;;;;;;12.53;49.28;99881.47;5112517;28;20630;-70
2024/01/27 09:41:14;;;;;;;12.47;2.70;;;;;;;12.59;48.06;99885.19;5112870;28;20225;-70
2024/01/27 09:43:43;;;;;;;3.80;2.10;;;;;;;12.77;46.04;99875.63;5112000;28;20202;-69
2024/01/27 09:46:10;;;;;;;2.97;2.00;;;;;;;12.52;46.25;99876.34;5112388;28;20216;-71
2024/01/27 09:48:36;;;;;;;6.67;2.53;;;;;;;12.39;45.61;99868.28;5112703;28;20251;-69
2024/01/27 09:51:06;;;;;;;4.60;1.73;;;;;;;12.48;44.93;99865.28;5112500;28;20217;-69
2024/01/27 09:53:32;;;;;;;12.23;2.50;;;;;;;12.39;45.27;99863.81;5112310;28;20675;-69
2024/01/27 09:56:01;;;;;;;15.20;2.83;;;;;;;12.03;45.78;99863.22;5112804;28;20251;-70
2024/01/27 09:58:29;;;;;;;25.23;2.90;;;;;;;12.01;45.49;99870.53;5112982;28;20195;-69
2024/01/27 10:00:57;;;;;;;11.27;2.13;;;;;;;11.43;46.04;99844.31;5112139;28;20658;-70
2024/01/27 10:03:26;;;;;;;5.60;2.10;;;;;;;11.32;47.24;99857.34;5112259;28;20613;-69
2024/01/27 10:05:53;;;;;;;8.83;1.90;;;;;;;11.23;48.12;99856.63;5112065;28;20311;-69
2024/01/27 10:08:23;;;;;;;3.37;2.23;;;;;;;11.17;48.48;99846.78;5112202;28;20197;-70
2024/01/27 10:10:54;;;;;;;16.20;3.47;;;;;;;10.92;48.97;99837.53;5111927;28;20256;-70
2024/01/27 10:13:26;;;;;;;2.00;1.90;;;;;;;10.80;49.43;99847.88;5111971;28;20182;-72
2024/01/27 10:16:00;;;;;;;2.80;2.70;;;;;;;11.02;50.13;99851.31;5109610;28;20216;-69
2024/01/27 10:18:27;;;;;;;5.37;2.70;;;;;;;11.11;49.31;99860.81;5112054;28;20179;-70
2024/01/27 10:20:54;;;;;;;2.10;2.00;;;;;;;11.08;49.23;99850.59;5109620;28;20212;-72
2024/01/27 10:23:22;;;;;;;10.30;2.77;;;;;;;11.13;48.67;99869.44;5110426;28;20196;-72
2024/01/27 10:25:49;;;;;;;2.67;2.00;;;;;;;10.93;48.39;99873.72;5111119;28;20227;-72
2024/01/27 10:28:16;;;;;;;12.77;2.37;;;;;;;10.89;48.65;99883.09;5111241;28;20191;-71
2024/01/27 10:30:43;;;;;;;3.93;2.67;;;;;;;10.96;49.25;99884.00;5110658;28;20195;-69
2024/01/27 10:33:11;;;;;;;2.10;1.90;;;;;;;10.96;49.09;99884.81;5111009;28;20277;-70
2024/01/27 10:35:38;;;;;;;3.83;2.20;;;;;;;11.01;49.25;99876.28;5111442;28;20199;-69
2024/01/27 10:38:05;;;;;;;11.60;2.37;;;;;;;10.91;49.05;99875.78;5111379;28;20222;-69
2024/01/27 10:40:33;;;;;;;4.87;2.30;;;;;;;10.82;49.34;99869.75;5111321;28;20234;-69
2024/01/27 10:43:04;;;;;;;3.03;2.70;;;;;;;10.95;49.21;99875.19;5111315;28;20279;-70
2024/01/27 10:45:37;;;;;;;6.17;1.90;;;;;;;10.87;50.05;99875.31;5111580;28;20197;-69
2024/01/27 10:48:05;;;;;;;2.10;1.97;;;;;;;10.90;50.35;99869.63;5111220;28;20256;-69
2024/01/27 10:50:35;;;;;;;5.23;2.20;;;;;;;11.00;50.40;99875.44;5110959;28;20252;-70
2024/01/27 10:53:04;;;;;;;2.30;2.20;;;;;;;11.09;49.97;99852.22;5110978;28;20248;-70
2024/01/27 10:55:34;;;;;;;2.90;2.43;;;;;;;11.50;49.00;99877.13;5110680;28;20231;-70
2024/01/27 10:58:02;;;;;;;12.40;2.23;;;;;;;11.67;47.88;99873.19;5110796;28;20187;-69
2024/01/27 11:00:30;;;;;;;5.03;2.20;;;;;;;12.03;47.48;99865.03;5111685;28;20207;-69
2024/01/27 11:03:00;;;;;;;3.10;2.10;;;;;;;11.97;47.34;99879.16;5110758;28;20228;-70
2024/01/27 11:05:29;;;;;;;2.53;2.33;;;;;;;11.84;47.92;99879.88;5110447;28;20253;-71
2024/01/27 11:07:56;;;;;;;5.10;2.07;;;;;;;11.77;47.70;99867.53;5110678;28;20283;-70
2024/01/27 11:10:23;;;;;;;3.33;2.33;;;;;;;11.71;48.66;99863.81;5110685;28;20681;-70
2024/01/27 11:12:54;;;;;;;5.50;2.60;;;;;;;11.65;48.63;99869.09;5110627;28;20193;-70
2024/01/27 11:15:21;;;;;;;2.70;1.70;;;;;;;11.72;48.58;99881.41;5111537;28;20185;-69
2024/01/27 11:17:48;;;;;;;2.77;1.80;;;;;;;11.76;48.78;99855.25;5110754;28;20193;-70
2024/01/27 11:20:16;;;;;;;9.63;2.47;;;;;;;11.72;48.80;99854.00;5110875;28;20191;-70
2024/01/27 11:22:44;;;;;;;2.00;1.90;;;;;;;11.64;49.38;99852.28;5110784;28;20196;-69
2024/01/27 11:25:17;;;;;;;5.00;2.27;;;;;;;11.57;49.30;99856.72;5110504;28;20703;-70
2024/01/27 11:27:45;;;;;;;2.50;2.33;;;;;;;11.45;50.28;99873.41;5110857;28;20609;-69
2024/01/27 11:30:29;;;;;;;3.53;2.87;;;;;;;11.40;50.38;99866.00;5110520;28;20200;-71
2024/01/27 11:32:57;;;;;;;2.87;2.60;;;;;;;11.38;50.42;99873.34;5108877;28;20270;-70
2024/01/27 11:35:23;;;;;;;4.37;2.63;;;;;;;11.31;51.00;99872.44;5111038;28;20207;-69
2024/01/27 11:37:50;;;;;;;2.23;2.10;;;;;;;11.11;51.77;99866.13;5110753;28;20196;-70
2024/01/27 11:40:17;;;;;;;3.50;2.67;;;;;;;11.08;52.26;99863.88;5111112;28;20224;-70